createdAt,value
2023-12-03T08:30:34.882Z,-5.18
2023-12-03T08:40:37.360Z,-4.20
2023-12-03T08:50:40.244Z,-3.43
2023-12-03T09:00:42.737Z,-3.04
2023-12-03T09:10:45.126Z,-2.76
2023-12-03T09:20:47.853Z,-2.21
2023-12-03T09:30:50.513Z,-1.54
2023-12-03T09:41:12.482Z,-1.57
2023-12-03T09:51:16.122Z,-1.53
2023-12-03T10:01:19.194Z,-1.25
2023-12-03T10:11:27.399Z,-0.80
2023-12-03T10:21:29.758Z,-0.49
2023-12-03T10:31:33.974Z,-0.34
2023-12-03T10:41:36.529Z,-0.59
2023-12-03T10:51:41.958Z,-1.32
2023-12-03T11:01:55.466Z,-1.11
2023-12-03T11:11:59.205Z,-1.13
2023-12-03T11:22:10.106Z,-1.01
2023-12-03T11:32:12.570Z,-1.00
2023-12-03T11:42:16.555Z,-0.91
2023-12-03T11:52:19.534Z,-0.91
2023-12-03T12:02:21.930Z,-0.87
2023-12-03T12:12:24.391Z,-0.96
2023-12-03T12:22:27.496Z,-0.74
2023-12-03T12:32:32.668Z,-0.65
2023-12-03T12:42:35.950Z,-0.81
2023-12-03T12:52:38.280Z,-1.03
2023-12-03T13:02:41.162Z,-1.12
2023-12-03T13:12:44.811Z,-1.19
2023-12-03T13:22:47.306Z,-1.56
2023-12-03T13:32:52.163Z,-1.43
2023-12-03T13:42:55.264Z,-1.22
2023-12-03T13:52:58.261Z,-1.56
2023-12-03T14:03:00.668Z,-1.44
2023-12-03T14:13:03.243Z,-1.63
2023-12-03T14:33:25.369Z,-1.52
2023-12-03T14:43:27.979Z,-1.84
2023-12-03T14:53:30.314Z,-2.14
2023-12-03T15:03:33.545Z,-2.36
2023-12-03T15:13:36.234Z,-2.83
2023-12-03T15:23:40.484Z,-3.17
2023-12-03T15:33:43.311Z,-3.16
2023-12-03T15:43:47.817Z,-3.30
2023-12-03T15:53:50.606Z,-3.55
2023-12-03T16:03:52.979Z,-3.13
2023-12-03T16:13:55.510Z,-3.06
2023-12-03T16:23:57.969Z,-2.90
2023-12-03T16:34:00.397Z,-2.79
2023-12-03T16:44:02.885Z,-2.65
2023-12-03T17:04:28.122Z,-2.57
2023-12-03T17:14:30.512Z,-2.47
2023-12-03T17:24:40.449Z,-2.45
2023-12-03T17:34:42.936Z,-2.47
2023-12-03T17:44:45.415Z,-2.56
2023-12-03T17:54:47.824Z,-2.53
2023-12-03T18:04:51.165Z,-2.43
2023-12-03T18:14:55.344Z,-2.41
2023-12-03T18:24:57.728Z,-2.34
2023-12-03T18:35:00.194Z,-2.38
2023-12-03T18:45:04.394Z,-2.34
2023-12-03T18:55:07.382Z,-2.38
2023-12-03T19:05:09.971Z,-2.37
2023-12-03T19:15:12.409Z,-2.30
2023-12-03T19:35:38.119Z,-2.31
2023-12-03T19:45:40.524Z,-2.28
2023-12-03T20:06:05.986Z,-2.27
2023-12-03T20:16:08.946Z,-2.25
2023-12-03T20:36:37.831Z,-2.37
2023-12-03T20:46:40.456Z,-2.38
2023-12-03T20:56:42.790Z,-2.33
2023-12-03T21:06:45.143Z,-2.45
2023-12-03T21:20:12.394Z,-2.56
2023-12-03T21:30:14.975Z,-2.62
2023-12-03T21:40:17.526Z,-2.72
2023-12-03T21:50:19.851Z,-2.85
2023-12-03T22:00:22.351Z,-3.11
2023-12-03T22:10:24.809Z,-3.34
